Time;durP1;ratioP1;P1;durP2;ratioP2;P2;SDS_P1;SDS_P2;PMS_P1;PMS_P2;Temp;Humidity;BMP_temperature;BMP_pressure;BME280_temperature;BME280_humidity;BME280_pressure;Samples;Min_cycle;Max_cycle;Signal;HPM_P1;HPM_P2
2023/04/12 00:02:15;;;;;;;9.13;2.70;;;;;;;;;;5009200;28;25063;-72
2023/04/12 00:04:41;;;;;;;10.65;2.75;;;;;;;;;;5007538;28;25054;-72
2023/04/12 00:07:08;;;;;;;6.80;2.78;;;;;;;;;;5015611;28;25064;-72
2023/04/12 00:09:35;;;;;;;9.88;2.85;;;;;;;;;;4989184;28;25079;-72
2023/04/12 00:12:01;;;;;;;5.53;1.92;;;;;;;;;;5005796;28;25059;-74
2023/04/12 00:14:28;;;;;;;4.03;1.92;;;;;;;;;;5009655;28;25059;-71
2023/04/12 00:16:54;;;;;;;6.55;2.40;;;;;;;;;;4985238;28;25061;-70
2023/04/12 00:19:20;;;;;;;7.10;2.38;;;;;;;;;;5008782;28;25075;-72
2023/04/12 00:21:46;;;;;;;8.18;2.28;;;;;;;;;;5012578;28;25078;-73
2023/04/12 00:24:12;;;;;;;7.40;1.90;;;;;;;;;;5014694;28;25072;-73
2023/04/12 00:26:38;;;;;;;4.53;2.05;;;;;;;;;;5014729;28;25065;-72
2023/04/12 00:29:04;;;;;;;5.47;2.15;;;;;;;;;;5009691;28;25089;-71
2023/04/12 00:31:30;;;;;;;3.53;1.67;;;;;;;;;;5010601;28;25089;-73
2023/04/12 00:33:57;;;;;;;2.88;1.55;;;;;;;;;;5009955;28;25156;-73
2023/04/12 00:36:23;;;;;;;3.95;1.60;;;;;;;;;;5014254;28;25144;-75
2023/04/12 00:38:49;;;;;;;2.85;1.65;;;;;;;;;;5018342;28;25083;-71
2023/04/12 00:41:15;;;;;;;5.78;1.77;;;;;;;;;;4997852;28;25060;-73
2023/04/12 00:43:41;;;;;;;3.90;2.08;;;;;;;;;;5021110;28;25105;-71
2023/04/12 00:46:07;;;;;;;4.15;2.22;;;;;;;;;;5020507;28;25077;-72
2023/04/12 00:48:33;;;;;;;6.68;1.90;;;;;;;;;;5015328;28;25083;-70
2023/04/12 00:50:59;;;;;;;6.82;1.83;;;;;;;;;;5022947;28;25078;-73
2023/04/12 00:53:26;;;;;;;6.65;1.98;;;;;;;;;;5014591;28;25072;-72
2023/04/12 00:55:52;;;;;;;5.82;2.25;;;;;;;;;;5014504;28;25083;-72
2023/04/12 00:58:20;;;;;;;5.30;2.22;;;;;;;;;;5017026;28;25142;-71
2023/04/12 01:00:51;;;;;;;2.75;1.80;;;;;;;;;;5011290;28;25108;-72
2023/04/12 01:03:26;;;;;;;5.70;1.60;;;;;;;;;;5017783;28;25076;-72
2023/04/12 01:05:58;;;;;;;5.03;1.50;;;;;;;;;;5017401;28;25089;-73
2023/04/12 01:08:39;;;;;;;2.83;1.60;;;10.00;99.90;;;;;;5017970;28;25145;-70
2023/04/12 01:11:13;;;;;;;4.18;1.55;;;;;;;;;;5025202;28;25071;-71
2023/04/12 01:13:48;;;;;;;4.15;1.30;;;;;;;;;;5032000;28;25080;-73
2023/04/12 01:16:21;;;;;;;5.07;1.58;;;;;;;;;;5022673;28;25061;-73
2023/04/12 01:18:52;;;;;;;3.67;1.40;;;;;;;;;;5023509;28;25076;-73
2023/04/12 01:21:30;;;;;;;5.72;1.45;;;;;;;;;;5023873;28;25073;-71
2023/04/12 01:24:18;;;;;;;4.78;1.33;;;;;;;;;;5014571;28;25151;-73
2023/04/12 01:26:46;;;;;;;2.42;1.63;;;;;;;;;;5022296;28;25058;-72
2023/04/12 01:29:14;;;;;;;3.42;1.52;;;;;;;;;;5015841;28;25075;-73
2023/04/12 01:31:41;;;;;;;3.83;1.42;;;;;;;;;;5019811;28;25049;-73
2023/04/12 01:34:09;;;;;;;5.22;2.13;;;;;;;;;;5016194;28;25100;-73
2023/04/12 01:36:36;;;;;;;1.52;1.13;;;;;;;;;;5009862;28;25109;-71
2023/04/12 01:39:03;;;;;;;5.93;2.28;;;;;;;;;;5001445;28;25065;-73
2023/04/12 01:41:30;;;;;;;2.25;1.45;;;;;;;;;;5027813;28;25051;-72
2023/04/12 01:43:56;;;;;;;4.82;2.05;;;;;;;;;;5014603;28;25093;-72
2023/04/12 01:46:22;;;;;;;4.28;2.20;;;;;;;;;;5009591;28;25086;-72
2023/04/12 01:48:50;;;;;;;2.42;1.50;;;;;;;;;;5019849;28;25090;-72
2023/04/12 01:51:19;;;;;;;3.03;1.58;;;;;;;;;;5017222;28;25068;-72
2023/04/12 01:53:54;;;;;;;3.38;1.60;;;;;;;;;;5020826;28;25073;-72
2023/04/12 01:56:21;;;;;;;3.70;1.23;;;;;;;;;;5021306;28;25063;-72
2023/04/12 01:58:48;;;;;;;4.82;1.60;;;;;;;;;;5021753;28;25072;-72
2023/04/12 02:01:15;;;;;;;4.00;2.15;;;;;;;;;;5021628;28;25072;-72
2023/04/12 02:03:41;;;;;;;2.55;1.33;;;;;;;;;;5020066;28;25066;-73
2023/04/12 02:06:08;;;;;;;4.28;1.75;;;;;;;;;;5016412;28;25091;-71
2023/04/12 02:08:34;;;;;;;5.07;1.60;;;;;;;;;;5004409;28;25057;-72
2023/04/12 02:11:00;;;;;;;5.50;2.78;;;;;;;;;;5020650;28;25070;-73
2023/04/12 02:13:26;;;;;;;4.85;1.80;;;;;;;;;;5018633;28;25066;-73
2023/04/12 02:15:53;;;;;;;3.10;1.73;;;;;;;;;;5023912;28;25075;-73
2023/04/12 02:18:19;;;;;;;3.08;1.50;;;;;;;;;;5023627;28;25089;-73
2023/04/12 02:20:45;;;;;;;2.42;1.80;;;;;;;;;;5019639;28;25065;-74
2023/04/12 02:23:12;;;;;;;4.15;1.40;;;;;;;;;;5005168;28;25087;-73
2023/04/12 02:25:40;;;;;;;2.78;1.98;;;;;;;;;;5006994;28;25063;-72
2023/04/12 02:28:06;;;;;;;4.45;1.60;;;;;;;;;;5006387;28;25112;-73
2023/04/12 02:30:32;;;;;;;9.10;1.73;;;;;;;;;;4989280;28;25145;-72
2023/04/12 02:32:58;;;;;;;2.47;1.50;;;;;;;;;;4992747;28;25059;-72
2023/04/12 02:35:24;;;;;;;3.88;1.75;;;;;;;;;;4994466;28;25058;-74
2023/04/12 02:37:50;;;;;;;3.03;1.27;;;;;;;;;;4985284;28;25136;-73
2023/04/12 02:40:16;;;;;;;4.32;1.25;;;;;;;;;;4973913;28;25057;-72
2023/04/12 02:42:43;;;;;;;6.63;1.40;;;;;;;;;;5009719;28;25085;-72
2023/04/12 02:45:09;;;;;;;4.97;1.67;;;;;;;;;;5002234;28;25148;-72
2023/04/12 02:47:36;;;;;;;2.90;1.55;;;;;;;;;;5002120;28;25077;-73
2023/04/12 02:50:03;;;;;;;4.45;1.42;;;;;;;;;;4995196;28;25114;-74
2023/04/12 02:52:29;;;;;;;4.07;1.67;;;;;;;;;;4996963;28;25090;-74
2023/04/12 02:54:55;;;;;;;7.15;1.67;;;;;;;;;;4999217;28;25080;-73
2023/04/12 02:57:22;;;;;;;3.05;1.63;;;;;;;;;;5004644;28;25082;-72
2023/04/12 02:59:51;;;;;;;2.75;1.48;;;;;;;;;;4987524;28;25081;-72
2023/04/12 03:02:17;;;;;;;6.55;2.35;;;;;;;;;;5005222;28;25066;-72
2023/04/12 03:04:45;;;;;;;5.50;1.85;;;;;;;;;;5004353;28;25051;-72
2023/04/12 03:07:11;;;;;;;2.67;1.63;;;;;;;;;;5003866;28;25059;-71
2023/04/12 03:09:37;;;;;;;3.63;1.92;;;;;;;;;;4982423;28;25080;-73
2023/04/12 03:12:04;;;;;;;4.13;2.00;;;;;;;;;;4996002;28;25081;-71
2023/04/12 03:14:30;;;;;;;2.00;1.50;;;;;;;;;;4992760;28;25073;-72
2023/04/12 03:16:57;;;;;;;4.18;1.60;;;;;;;;;;4999671;28;25163;-72
2023/04/12 03:19:23;;;;;;;7.47;2.00;;;;;;;;;;5000218;28;25061;-72
2023/04/12 03:21:49;;;;;;;2.38;1.73;;;;;;;;;;4998223;28;25064;-73
2023/04/12 03:24:15;;;;;;;6.90;2.15;;;10.80;99.90;;;;;;4998240;28;25132;-73
2023/04/12 03:26:42;;;;;;;3.25;1.55;;;;;;;;;;5005823;28;25103;-73
2023/04/12 03:29:08;;;;;;;3.88;1.50;;;;;;;;;;5000710;28;25065;-72
2023/04/12 03:31:35;;;;;;;3.40;1.98;;;;;;;;;;5005871;28;25065;-73
2023/04/12 03:34:01;;;;;;;6.35;2.63;;;;;;;;;;4997751;28;25052;-73
2023/04/12 03:36:28;;;;;;;5.05;1.85;;;;;;;;;;4995323;28;25073;-74
2023/04/12 03:38:54;;;;;;;5.10;1.38;;;;;;;;;;5002396;28;25127;-73
2023/04/12 03:41:23;;;;;;;4.68;1.45;;;;;;;;;;4998763;28;25076;-73
2023/04/12 03:43:49;;;;;;;2.85;1.60;;;;;;;;;;5009909;28;25146;-72
2023/04/12 03:46:15;;;;;;;3.33;1.60;;;;;;;;;;4999624;28;25333;-73
2023/04/12 03:48:41;;;;;;;2.33;1.67;;;;;;;;;;5007750;28;25084;-74
2023/04/12 03:51:10;;;;;;;2.90;1.60;;;;;;;;;;5007873;28;25100;-73
2023/04/12 03:53:39;;;;;;;2.20;1.50;;;;;;;;;;5008121;28;25065;-73
2023/04/12 03:56:06;;;;;;;4.88;1.88;;;;;;;;;;5009313;28;25080;-72
2023/04/12 03:58:32;;;;;;;4.07;2.00;;;;;;;;;;5011874;28;25062;-72
2023/04/12 04:01:00;;;;;;;2.97;1.70;;;;;;;;;;5008930;28;25055;-73
2023/04/12 04:03:28;;;;;;;4.85;1.40;;;;;;;;;;5008248;28;25052;-73
2023/04/12 04:05:54;;;;;;;5.43;2.10;;;;;;;;;;5005597;28;25136;-73
2023/04/12 04:08:20;;;;;;;5.13;1.52;;;;;;;;;;4988442;28;25141;-74
2023/04/12 04:10:46;;;;;;;6.80;1.50;;;11.60;99.90;;;;;;5015296;28;25072;-73
2023/04/12 04:13:12;;;;;;;3.97;1.77;;;11.50;99.90;;;;;;5022181;28;25075;-73
2023/04/12 04:15:37;;;;;;;5.85;1.98;;;11.50;99.90;;;;;;5005983;28;25134;-73
2023/04/12 04:18:03;;;;;;;3.92;1.60;;;11.30;99.90;;;;;;5009084;28;25072;-73
2023/04/12 04:20:30;;;;;;;6.28;1.88;;;;;;;;;;4989335;28;25108;-74
2023/04/12 04:22:57;;;;;;;1.88;1.40;;;;;;;;;;5002047;28;25075;-74
2023/04/12 04:25:28;;;;;;;3.60;2.05;;;;;;;;;;5000499;28;25068;-72
2023/04/12 04:27:58;;;;;;;3.67;1.50;;;11.70;99.90;;;;;;4995287;28;25055;-73
2023/04/12 04:30:25;;;;;;;3.78;1.58;;;;;;;;;;5002218;28;25069;-73
2023/04/12 04:32:51;;;;;;;5.53;1.85;;;;;;;;;;5005386;28;25090;-73
2023/04/12 04:35:17;;;;;;;8.43;2.53;;;;;;;;;;4995556;28;25057;-74
2023/04/12 04:37:43;;;;;;;3.72;1.65;;;;;;;;;;5005817;28;25053;-72
2023/04/12 04:40:13;;;;;;;4.47;1.58;;;;;;;;;;4990419;28;25103;-73
2023/04/12 04:42:39;;;;;;;6.30;2.55;;;;;;;;;;4997947;28;25162;-72
2023/04/12 04:45:11;;;;;;;4.10;1.83;;;;;;;;;;5001547;28;25079;-75
2023/04/12 04:47:38;;;;;;;8.85;1.98;;;;;;;;;;4996934;28;25090;-74
2023/04/12 04:50:05;;;;;;;3.25;2.13;;;;;;;;;;5004057;28;25076;-74
2023/04/12 04:52:31;;;;;;;10.77;2.35;;;;;;;;;;5007656;28;25075;-74
2023/04/12 04:54:57;;;;;;;5.75;2.67;;;;;;;;;;5000184;28;25068;-74
2023/04/12 04:57:23;;;;;;;4.18;2.47;;;;;;;;;;4994996;28;25077;-74
2023/04/12 04:59:49;;;;;;;4.55;2.35;;;;;;;;;;5000499;28;25075;-74
2023/04/12 05:02:15;;;;;;;5.28;2.97;;;;;;;;;;5002356;28;25157;-74
2023/04/12 05:04:41;;;;;;;3.45;2.90;;;;;;;;;;5004152;28;25116;-74
2023/04/12 05:07:07;;;;;;;6.43;3.90;;;;;;;;;;5001598;28;25055;-75
2023/04/12 05:09:33;;;;;;;7.55;3.30;;;;;;;;;;5003086;28;25054;-72
2023/04/12 05:11:59;;;;;;;6.28;3.55;;;;;;;;;;5006576;28;25113;-73
2023/04/12 05:14:25;;;;;;;7.63;4.05;;;;;;;;;;5002304;28;25063;-74
2023/04/12 05:16:51;;;;;;;5.63;4.30;;;;;;;;;;5005037;28;25065;-73
2023/04/12 05:19:17;;;;;;;10.70;4.45;;;;;;;;;;4977666;28;25082;-73
2023/04/12 05:21:43;;;;;;;10.63;5.20;;;12.50;99.90;;;;;;4999736;28;25033;-73
2023/04/12 05:24:10;;;;;;;13.82;5.38;;;;;;;;;;5000881;28;25060;-73
2023/04/12 05:26:36;;;;;;;9.00;5.13;;;;;;;;;;5003372;28;25084;-72
2023/04/12 05:29:02;;;;;;;12.15;5.38;;;;;;;;;;5000309;28;25112;-72
2023/04/12 05:31:28;;;;;;;9.98;6.03;;;;;;;;;;5002508;28;25073;-73
2023/04/12 05:33:54;;;;;;;10.95;4.93;;;;;;;;;;5004574;28;25068;-72
2023/04/12 05:36:20;;;;;;;8.35;5.10;;;;;;;;;;4995975;28;25118;-72
2023/04/12 05:38:46;;;;;;;11.68;4.95;;;;;;;;;;5001913;28;25141;-72
2023/04/12 05:41:12;;;;;;;9.95;4.93;;;;;;;;;;5000091;28;25060;-71
2023/04/12 05:43:38;;;;;;;9.32;4.30;;;;;;;;;;4999043;28;25120;-72
2023/04/12 05:46:08;;;;;;;12.40;4.90;;;;;;;;;;5004466;28;25113;-73
2023/04/12 05:48:34;;;;;;;13.68;5.93;;;;;;;;;;5009911;28;25057;-73
2023/04/12 05:51:01;;;;;;;11.63;5.40;;;;;;;;;;4998893;28;25150;-72
2023/04/12 05:53:28;;;;;;;10.32;4.97;;;;;;;;;;5002360;28;25091;-73
2023/04/12 05:55:54;;;;;;;10.63;4.65;;;;;;;;;;5006967;28;25138;-72
2023/04/12 05:58:20;;;;;;;15.80;5.28;;;;;;;;;;5004974;28;25056;-74
2023/04/12 06:00:48;;;;;;;10.07;4.90;;;;;;;;;;5005279;28;25156;-72
2023/04/12 06:03:14;;;;;;;12.90;5.20;;;;;;;;;;5005459;28;25053;-72
2023/04/12 06:05:40;;;;;;;11.82;5.10;;;;;;;;;;4987438;28;25071;-72
2023/04/12 06:08:07;;;;;;;7.82;4.82;;;;;;;;;;5005300;28;25127;-72
2023/04/12 06:10:33;;;;;;;12.77;4.88;;;;;;;;;;5004271;28;25111;-72
2023/04/12 06:12:59;;;;;;;18.45;4.55;;;;;;;;;;5005360;28;25111;-72
2023/04/12 06:15:25;;;;;;;12.25;4.03;;;;;;;;;;5004055;28;25061;-72
2023/04/12 06:17:51;;;;;;;16.55;4.47;;;;;;;;;;5005332;28;25085;-71
2023/04/12 06:20:17;;;;;;;13.45;3.40;;;;;;;;;;5004975;28;25056;-72
2023/04/12 06:22:43;;;;;;;17.58;4.05;;;;;;;;;;5002504;28;25076;-72
2023/04/12 06:25:09;;;;;;;12.88;3.47;;;;;;;;;;5005441;28;25120;-72
2023/04/12 06:27:35;;;;;;;15.60;4.20;;;;;;;;;;5005318;28;25177;-72
2023/04/12 06:30:01;;;;;;;17.77;4.18;;;;;;;;;;4975196;28;25076;-73
2023/04/12 06:32:27;;;;;;;11.95;3.45;;;;;;;;;;4999719;28;25084;-71
2023/04/12 06:34:54;;;;;;;14.52;3.38;;;;;;;;;;4999435;28;25071;-73
2023/04/12 06:37:20;;;;;;;19.60;5.25;;;;;;;;;;4987055;28;25072;-75
2023/04/12 06:39:46;;;;;;;18.60;3.05;;;;;;;;;;5006090;28;25071;-71
2023/04/12 06:42:13;;;;;;;14.40;3.10;;;;;;;;;;5003367;28;25154;-73
2023/04/12 06:44:39;;;;;;;23.70;3.38;;;;;;;;;;5005204;28;25066;-72
2023/04/12 06:47:05;;;;;;;22.95;3.53;;;;;;;;;;5005813;28;25059;-73
2023/04/12 06:49:31;;;;;;;17.73;3.25;;;;;;;;;;5004658;28;25054;-73
2023/04/12 06:51:57;;;;;;;10.27;2.92;;;;;;;;;;5009637;28;25072;-73
2023/04/12 06:54:23;;;;;;;32.78;4.65;;;;;;;;;;4988314;28;25146;-73
2023/04/12 06:56:49;;;;;;;16.52;3.70;;;;;;;;;;5001991;28;25084;-72
2023/04/12 06:59:15;;;;;;;18.02;3.35;;;;;;;;;;5004391;28;25072;-72
2023/04/12 07:01:40;;;;;;;22.00;3.33;;;;;;;;;;5001642;28;25129;-72
2023/04/12 07:04:06;;;;;;;22.38;3.63;;;;;;;;;;4996054;28;25101;-73
2023/04/12 07:06:33;;;;;;;18.30;3.95;;;;;;;;;;4998622;28;25069;-72
2023/04/12 07:08:59;;;;;;;18.92;3.85;;;;;;;;;;5002263;28;25135;-73
2023/04/12 07:11:26;;;;;;;27.63;4.28;;;;;;;;;;5002378;28;25085;-72
2023/04/12 07:13:52;;;;;;;29.17;4.78;;;;;;;;;;5006610;28;25058;-71
2023/04/12 07:16:18;;;;;;;19.83;3.85;;;;;;;;;;5009618;28;25064;-72
2023/04/12 07:18:44;;;;;;;28.80;4.32;;;;;;;;;;5004261;28;25089;-72
2023/04/12 07:21:13;;;;;;;25.13;3.30;;;;;;;;;;5005797;28;25152;-73
2023/04/12 07:23:39;;;;;;;19.02;3.45;;;;;;;;;;5004067;28;25084;-72
2023/04/12 07:26:05;;;;;;;30.17;3.70;;;;;;;;;;5004591;28;25067;-72
2023/04/12 07:28:31;;;;;;;24.08;4.03;;;;;;;;;;5009906;28;25159;-71
2023/04/12 07:30:57;;;;;;;19.38;3.63;;;;;;;;;;5008146;28;25066;-73
2023/04/12 07:33:24;;;;;;;25.48;4.05;;;;;;;;;;5004971;28;25155;-72
2023/04/12 07:35:50;;;;;;;33.70;4.32;;;;;;;;;;4997865;28;25083;-71
2023/04/12 07:38:16;;;;;;;25.83;3.85;;;;;;;;;;5006821;28;25060;-71
2023/04/12 07:40:42;;;;;;;21.95;4.18;;;;;;;;;;5003090;28;25057;-73
2023/04/12 07:43:08;;;;;;;20.80;4.20;;;;;;;;;;4984778;28;25062;-72
2023/04/12 07:45:36;;;;;;;24.77;3.80;;;;;;;;;;5008769;28;25064;-73
2023/04/12 07:48:02;;;;;;;35.47;5.43;;;;;;;;;;5006780;28;25158;-72
2023/04/12 07:50:28;;;;;;;23.35;3.72;;;;;;;;;;4998766;28;25065;-71
2023/04/12 07:52:57;;;;;;;25.75;3.75;;;;;;;;;;5008519;28;25133;-72
2023/04/12 07:55:23;;;;;;;30.00;4.90;;;;;;;;;;5008322;28;25142;-72
2023/04/12 07:57:49;;;;;;;27.10;4.00;;;;;;;;;;5009181;28;25083;-71
2023/04/12 08:00:16;;;;;;;28.08;3.72;;;;;;;;;;5007651;28;25065;-73
2023/04/12 08:02:42;;;;;;;26.08;5.75;;;;;;;;;;5004815;28;25152;-70
2023/04/12 08:05:08;;;;;;;23.58;4.18;;;;;;;;;;5006474;28;25060;-71
2023/04/12 08:07:35;;;;;;;24.17;4.07;;;;;;;;;;5004829;28;25068;-72
2023/04/12 08:10:01;;;;;;;19.25;3.63;;;;;;;;;;5006069;28;25070;-72
2023/04/12 08:12:26;;;;;;;25.20;4.43;;;;;;;;;;5009083;28;25136;-73
2023/04/12 08:14:52;;;;;;;22.83;3.58;;;;;;;;;;5008727;28;25074;-74
2023/04/12 08:17:18;;;;;;;26.60;4.53;;;;;;;;;;4991218;28;25077;-72
2023/04/12 08:19:45;;;;;;;24.38;3.60;;;;;;;;;;4991820;28;25051;-74
2023/04/12 08:22:11;;;;;;;23.17;3.55;;;;;;;;;;4987985;28;25058;-72
2023/04/12 08:24:37;;;;;;;19.95;3.17;;;;;;;;;;4990957;28;25089;-72
2023/04/12 08:27:03;;;;;;;19.88;4.32;;;;;;;;;;5001523;28;25078;-71
2023/04/12 08:29:29;;;;;;;29.48;6.97;;;;;;;;;;4987203;28;25060;-72
2023/04/12 08:31:55;;;;;;;37.47;8.02;;;;;;;;;;5007581;28;25051;-73
2023/04/12 08:34:23;;;;;;;24.20;5.00;;;;;;;;;;5006571;28;25063;-72
2023/04/12 08:36:49;;;;;;;20.75;3.83;;;;;;;;;;5008235;28;25045;-72
2023/04/12 08:39:15;;;;;;;18.40;3.85;;;;;;;;;;5006335;28;25057;-72
2023/04/12 08:41:41;;;;;;;23.95;5.35;;;;;;;;;;5008177;28;25064;-73
2023/04/12 08:44:07;;;;;;;20.60;5.85;;;;;;;;;;5006155;28;25064;-71
2023/04/12 08:46:36;;;;;;;30.60;5.50;;;;;;;;;;5008709;28;25062;-71
2023/04/12 08:49:02;;;;;;;23.20;4.38;;;;;;;;;;5006582;28;25081;-72
2023/04/12 08:51:27;;;;;;;24.27;3.65;;;;;;;;;;5004995;28;25063;-72
2023/04/12 08:53:53;;;;;;;20.60;5.00;;;;;;;;;;5003949;28;25075;-73
2023/04/12 08:56:20;;;;;;;25.20;4.05;;;;;;;;;;4998978;28;25055;-72
2023/04/12 08:58:49;;;;;;;19.02;3.67;;;;;;;;;;4995642;28;25053;-72
2023/04/12 09:01:17;;;;;;;23.08;3.80;;;;;;;;;;4991216;28;25076;-72
2023/04/12 09:03:44;;;;;;;29.55;4.95;;;;;;;;;;5000167;28;25081;-71
2023/04/12 09:06:11;;;;;;;21.23;3.80;;;;;;;;;;4998370;28;25058;-72
2023/04/12 09:08:36;;;;;;;23.88;3.90;;;;;;;;;;5005202;28;25063;-71
2023/04/12 09:11:20;;;;;;;18.08;3.83;;;;;;;;;;4998405;28;25060;-72
2023/04/12 09:13:46;;;;;;;19.00;3.50;;;;;;;;;;5007374;28;25091;-71
2023/04/12 09:16:12;;;;;;;24.65;4.15;;;;;;;;;;5004094;28;25088;-72
2023/04/12 09:18:49;;;;;;;19.58;4.55;;;;;;;;;;5008529;28;25065;-71
2023/04/12 09:21:15;;;;;;;16.63;2.95;;;;;;;;;;4998481;28;25055;-70
2023/04/12 09:23:41;;;;;;;12.20;2.38;;;;;;;;;;5001362;28;25065;-71
2023/04/12 09:26:08;;;;;;;20.73;4.90;;;;;;;;;;4996501;28;25112;-71
2023/04/12 09:28:34;;;;;;;24.13;4.07;;;;;;;;;;5014158;28;25133;-72
2023/04/12 09:31:02;;;;;;;21.33;4.32;;;;;;;;;;4999447;28;25071;-72
2023/04/12 09:33:32;;;;;;;11.35;2.42;;;;;;;;;;4981250;28;25082;-74
2023/04/12 09:36:02;;;;;;;15.65;3.70;;;;;;;;;;5007514;28;25064;-73
2023/04/12 09:38:31;;;;;;;17.92;4.25;;;;;;;;;;5014295;28;25094;-72
2023/04/12 09:40:57;;;;;;;24.27;4.30;;;;;;;;;;5001823;28;25062;-72
2023/04/12 09:43:39;;;;;;;17.50;3.25;;;;;;;;;;4989758;28;25077;-72
2023/04/12 09:46:10;;;;;;;13.77;4.10;;;;;;;;;;5011740;28;25065;-71
2023/04/12 09:48:37;;;;;;;15.50;2.83;;;;;;;;;;5002308;28;25069;-71
2023/04/12 09:51:03;;;;;;;14.98;3.35;;;;;;;;;;5015306;28;25113;-72
2023/04/12 09:53:30;;;;;;;19.30;3.92;;;;;;;;;;5010182;28;25060;-72
2023/04/12 09:55:57;;;;;;;22.17;3.40;;;;;;;;;;4998828;28;25042;-71
2023/04/12 09:58:23;;;;;;;17.02;2.88;;;;;;;;;;5010161;28;24991;-73
2023/04/12 10:00:49;;;;;;;21.60;3.55;;;;;;;;;;5001969;28;25074;-73
2023/04/12 10:03:15;;;;;;;14.10;3.10;;;;;;;;;;5000362;28;25111;-71
2023/04/12 10:05:41;;;;;;;9.90;2.30;;;;;;;;;;5006682;28;25154;-72
2023/04/12 10:08:07;;;;;;;14.68;4.38;;;;;;;;;;5006284;28;25065;-69
2023/04/12 10:10:33;;;;;;;13.75;2.40;;;;;;;;;;5002661;28;25083;-71
2023/04/12 10:13:00;;;;;;;14.27;3.13;;;;;;;;;;5006538;28;25166;-71
2023/04/12 10:15:28;;;;;;;19.95;4.22;;;;;;;;;;5005686;28;25161;-70
2023/04/12 10:17:56;;;;;;;11.85;2.30;;;;;;;;;;5006309;28;25157;-72
2023/04/12 10:20:22;;;;;;;11.25;2.25;;;12.90;99.90;;;;;;4990163;28;25061;-73
2023/04/12 10:22:49;;;;;;;11.40;2.38;;;;;;;;;;5004726;28;25093;-72
2023/04/12 10:25:22;;;;;;;11.35;1.95;;;;;;;;;;4999140;28;25168;-72
2023/04/12 10:27:49;;;;;;;16.20;2.35;;;;;;;;;;5003364;28;25068;-72
2023/04/12 10:30:28;;;;;;;8.43;2.28;;;;;;;;;;5003991;28;25140;-71
2023/04/12 10:33:09;;;;;;;10.18;2.05;;;;;;;;;;5003238;28;25091;-67
2023/04/12 10:35:53;;;;;;;14.80;2.38;;;;;;;;;;5003694;28;25103;-72
2023/04/12 10:38:20;;;;;;;10.02;1.98;;;;;;;;;;5011711;28;25087;-72
2023/04/12 10:41:04;;;;;;;7.50;2.00;;;;;;;;;;4999828;28;25077;-73
2023/04/12 10:43:30;;;;;;;9.32;1.90;;;;;;;;;;5023659;28;25075;-71
2023/04/12 10:46:02;;;;;;;14.43;2.42;;;;;;;;;;5000252;28;25077;-69
2023/04/12 10:48:30;;;;;;;13.23;2.72;;;;;;;;;;4986879;28;25088;-71
2023/04/12 10:51:25;;;;;;;15.88;2.55;;;;;;;;;;5007809;28;25069;-70
2023/04/12 10:54:15;;;;;;;13.80;2.17;;;;;;;;;;4996190;28;25147;-73
2023/04/12 10:56:41;;;;;;;16.92;2.80;;;;;;;;;;5008432;28;25178;-72
2023/04/12 10:59:08;;;;;;;17.45;2.85;;;;;;;;;;4997309;28;25079;-73
2023/04/12 11:01:34;;;;;;;12.25;2.35;;;;;;;;;;5001773;28;25117;-71
2023/04/12 11:04:13;;;;;;;13.32;2.33;;;;;;;;;;4999093;28;25055;-73
2023/04/12 11:07:03;;;;;;;14.80;2.83;;;;;;;;;;5003594;28;25068;-72
2023/04/12 11:09:32;;;;;;;13.82;2.53;;;;;;;;;;5002221;28;25066;-73
2023/04/12 11:12:13;;;;;;;14.63;3.05;;;;;;;;;;5001511;28;25078;-72
2023/04/12 11:14:47;;;;;;;13.00;2.92;;;;;;;;;;5003569;28;25082;-71
2023/04/12 11:17:14;;;;;;;9.88;1.60;;;;;;;;;;5003527;28;25054;-71
2023/04/12 11:19:41;;;;;;;13.75;1.83;;;;;;;;;;4992728;28;25151;-72
2023/04/12 11:22:08;;;;;;;8.95;1.25;;;;;;;;;;4990583;28;25077;-73
2023/04/12 11:24:38;;;;;;;5.18;1.73;;;;;;;;;;4995975;28;25059;-72
2023/04/12 11:27:04;;;;;;;8.60;1.73;;;;;;;;;;4995180;28;25062;-72
2023/04/12 11:29:31;;;;;;;9.20;1.63;;;;;;;;;;4996616;28;25064;-70
2023/04/12 11:31:57;;;;;;;10.55;1.70;;;;;;;;;;5001713;28;25161;-72
2023/04/12 11:34:24;;;;;;;9.98;1.95;;;;;;;;;;5001852;28;25081;-72
2023/04/12 11:36:53;;;;;;;7.75;1.95;;;13.30;99.90;;;;;;4984839;28;25061;-72
2023/04/12 11:39:20;;;;;;;7.60;1.88;;;;;;;;;;4981502;28;25100;-75
2023/04/12 11:41:49;;;;;;;10.80;1.65;;;;;;;;;;5005897;28;25184;-70
2023/04/12 11:44:20;;;;;;;11.60;2.03;;;;;;;;;;5007390;28;25087;-72
2023/04/12 11:46:47;;;;;;;9.02;1.63;;;12.90;99.90;;;;;;5011074;28;25090;-73
2023/04/12 11:49:16;;;;;;;9.45;2.35;;;;;;;;;;5009245;28;25086;-73
2023/04/12 11:51:43;;;;;;;13.90;3.10;;;12.70;99.90;;;;;;5011248;28;25068;-71
2023/04/12 11:54:10;;;;;;;7.95;2.45;;;;;;;;;;5007622;28;25069;-73
2023/04/12 11:56:36;;;;;;;8.07;1.50;;;;;;;;;;5006066;28;25110;-72
2023/04/12 11:59:02;;;;;;;16.30;2.28;;;;;;;;;;5015590;28;25083;-72
2023/04/12 12:01:30;;;;;;;12.93;2.08;;;;;;;;;;5019726;28;25132;-70
2023/04/12 12:03:56;;;;;;;5.07;1.10;;;;;;;;;;5009609;28;25094;-71
2023/04/12 12:06:23;;;;;;;8.00;1.33;;;;;;;;;;4995887;28;25111;-71
2023/04/12 12:08:52;;;;;;;7.55;1.70;;;;;;;;;;5013209;28;25060;-72
2023/04/12 12:11:20;;;;;;;6.28;1.45;;;;;;;;;;5025200;28;25095;-71
2023/04/12 12:13:47;;;;;;;5.03;1.20;;;;;;;;;;5021369;28;25059;-70
2023/04/12 12:16:14;;;;;;;9.73;2.72;;;;;;;;;;5009201;28;25097;-72
2023/04/12 12:18:40;;;;;;;15.68;2.50;;;;;;;;;;5022970;28;25093;-74
2023/04/12 12:21:10;;;;;;;10.52;2.05;;;;;;;;;;5025028;28;25061;-70
2023/04/12 12:23:36;;;;;;;8.27;1.50;;;;;;;;;;5022553;28;25170;-72
2023/04/12 12:26:03;;;;;;;11.13;1.40;;;;;;;;;;5015156;28;25098;-70
2023/04/12 12:28:29;;;;;;;9.65;1.60;;;;;;;;;;5000023;28;25064;-71
2023/04/12 12:30:56;;;;;;;6.47;1.45;;;;;;;;;;5016358;28;25067;-72
2023/04/12 12:33:22;;;;;;;11.18;2.28;;;;;;;;;;5009804;28;25103;-71
2023/04/12 12:35:57;;;;;;;8.63;1.83;;;;;;;;;;5018849;28;25168;-70
2023/04/12 12:38:23;;;;;;;7.13;2.10;;;;;;;;;;5015564;28;25166;-73
2023/04/12 12:40:50;;;;;;;17.33;2.10;;;;;;;;;;5016033;28;25102;-71
2023/04/12 12:43:19;;;;;;;11.07;2.03;;;;;;;;;;5015159;28;25087;-72
2023/04/12 12:45:46;;;;;;;9.45;1.83;;;;;;;;;;5011599;28;24876;-71
2023/04/12 12:48:12;;;;;;;12.45;2.45;;;;;;;;;;5010275;28;25090;-72
2023/04/12 12:50:38;;;;;;;6.07;2.03;;;;;;;;;;5016840;28;25150;-71
2023/04/12 12:53:05;;;;;;;10.85;2.70;;;;;;;;;;5009493;28;25066;-71
2023/04/12 12:55:31;;;;;;;10.48;1.92;;;;;;;;;;4987989;28;25051;-71
2023/04/12 12:57:58;;;;;;;10.40;1.98;;;;;;;;;;5010386;28;25058;-71
2023/04/12 13:00:25;;;;;;;9.73;1.42;;;;;;;;;;5009167;28;25063;-71
2023/04/12 13:02:51;;;;;;;8.02;1.65;;;;;;;;;;5024835;28;25086;-72
2023/04/12 13:05:18;;;;;;;8.13;1.35;;;;;;;;;;5006116;28;25052;-71
2023/04/12 13:07:44;;;;;;;5.53;1.70;;;;;;;;;;4992735;28;25063;-74
2023/04/12 13:10:11;;;;;;;7.85;1.67;;;;;;;;;;5014380;28;25084;-72
2023/04/12 13:12:37;;;;;;;5.22;1.10;;;;;;;;;;4996857;28;25068;-73
2023/04/12 13:15:03;;;;;;;2.33;0.90;;;;;;;;;;5018556;28;25083;-73
2023/04/12 13:17:29;;;;;;;4.47;1.42;;;;;;;;;;5004997;28;25185;-72
2023/04/12 13:19:55;;;;;;;3.90;1.10;;;;;;;;;;4988440;28;25066;-71
2023/04/12 13:22:21;;;;;;;3.08;0.80;;;;;;;;;;5010598;28;25148;-72
2023/04/12 13:24:48;;;;;;;7.50;0.70;;;;;;;;;;5010054;28;25096;-71
2023/04/12 13:27:14;;;;;;;1.90;0.75;;;;;;;;;;5002805;28;25064;-70
2023/04/12 13:29:40;;;;;;;2.30;0.80;;;;;;;;;;4987269;28;25056;-72
2023/04/12 13:32:06;;;;;;;4.65;0.68;;;;;;;;;;5007382;28;25086;-71
2023/04/12 13:34:32;;;;;;;3.75;1.75;;;;;;;;;;5007307;28;25087;-71
2023/04/12 13:36:58;;;;;;;6.25;0.80;;;;;;;;;;4979604;28;25050;-72
2023/04/12 13:39:24;;;;;;;2.33;1.48;;;;;;;;;;5005092;28;25079;-72
2023/04/12 13:41:50;;;;;;;6.07;1.20;;;;;;;;;;5001238;28;25098;-73
2023/04/12 13:44:17;;;;;;;4.15;0.88;;;;;;;;;;4998276;28;25061;-73
2023/04/12 13:46:43;;;;;;;4.78;1.52;;;;;;;;;;5006332;28;25075;-71
2023/04/12 13:49:09;;;;;;;4.63;1.40;;;;;;;;;;5005626;28;25083;-72
2023/04/12 13:51:35;;;;;;;3.67;0.90;;;;;;;;;;4983853;28;25104;-71
2023/04/12 13:54:01;;;;;;;8.55;1.05;;;;;;;;;;5000185;28;25093;-72
2023/04/12 13:56:27;;;;;;;3.35;0.82;;;;;;;;;;5001724;28;25151;-72
2023/04/12 13:58:53;;;;;;;5.53;1.15;;;;;;;;;;5004924;28;25050;-72
2023/04/12 14:01:22;;;;;;;7.25;1.25;;;;;;;;;;5003518;28;25145;-72
2023/04/12 14:03:48;;;;;;;2.33;1.25;;;;;;;;;;5006262;28;25082;-72
2023/04/12 14:06:14;;;;;;;3.75;1.23;;;;;;;;;;4986905;28;25145;-71
2023/04/12 14:08:40;;;;;;;6.30;1.92;;;;;;;;;;4997907;28;25131;-71
2023/04/12 14:11:06;;;;;;;4.00;1.88;;;;;;;;;;4996040;28;25069;-71
2023/04/12 14:13:32;;;;;;;3.90;0.90;;;;;;;;;;4993181;28;25070;-71
2023/04/12 14:15:58;;;;;;;2.63;0.70;;;;;;;;;;4998254;28;25076;-71
2023/04/12 14:18:24;;;;;;;2.45;0.70;;;;;;;;;;5006500;28;25058;-71
2023/04/12 14:20:56;;;;;;;2.97;0.82;;;;;;;;;;4998272;28;25060;-73
2023/04/12 14:23:23;;;;;;;0.38;0.38;;;;;;;;;;5005375;28;25091;-73
2023/04/12 14:25:50;;;;;;;1.42;0.57;;;;;;;;;;5004043;28;25155;-73
2023/04/12 14:28:16;;;;;;;1.35;0.50;;;;;;;;;;4999287;28;25057;-72
2023/04/12 14:30:46;;;;;;;5.90;1.20;;;;;;;;;;5006688;28;25121;-73
2023/04/12 14:33:11;;;;;;;1.55;0.50;;;;;;;;;;4997180;28;25054;-73
2023/04/12 14:35:38;;;;;;;2.67;0.60;;;;;;;;;;5006587;28;25081;-71